Time;durP1;ratioP1;P1;durP2;ratioP2;P2;SDS_P1;SDS_P2;PMS_P1;PMS_P2;Temp;Humidity;BMP_temperature;BMP_pressure;BME280_temperature;BME280_humidity;BME280_pressure;Samples;Min_cycle;Max_cycle;Signal;HPM_P1;HPM_P2
2023/10/02 00:00:41;;;;;;;20.05;11.10;;;;;;;14.51;100.00;102016.25;5022968;28;20030;-76
2023/10/02 00:03:09;;;;;;;19.98;9.80;;;;;;;14.50;100.00;102025.03;5042009;28;20554;-76
2023/10/02 00:05:41;;;;;;;19.48;10.20;;;;;;;14.52;100.00;102020.63;5024606;28;20079;-77
2023/10/02 00:08:11;;;;;;;19.80;10.27;;;;;;;14.48;100.00;102024.16;5043496;28;20016;-77
2023/10/02 00:10:50;;;;;;;18.48;10.40;;;;;;;14.52;100.00;102019.78;5026159;28;20034;-76
2023/10/02 00:13:18;;;;;;;22.20;10.75;;;;;;;14.49;100.00;102020.66;5044653;28;20026;-76
2023/10/02 00:15:44;;;;;;;21.33;11.07;;;;;;;14.47;100.00;102013.72;5024582;28;20029;-76
2023/10/02 00:18:09;;;;;;;18.58;10.18;;;;;;;14.48;100.00;102024.16;5043514;28;20110;-76
2023/10/02 00:20:35;;;;;;;19.77;10.55;;;;;;;14.42;100.00;102011.19;5029417;28;20116;-76
2023/10/02 00:23:01;;;;;;;18.05;10.23;;;;;;;14.44;100.00;102016.41;5032755;28;20132;-76
2023/10/02 00:25:27;;;;;;;22.35;11.18;;;;;;;14.43;100.00;102017.31;5032196;27;20107;-77
2023/10/02 00:27:54;;;;;;;18.15;10.70;;;;;;;14.42;100.00;102023.41;5024807;28;20040;-76
2023/10/02 00:30:30;;;;;;;18.95;9.98;;;;;;;14.41;100.00;102013.84;5022850;28;20023;-77
2023/10/02 00:32:55;;;;;;;18.08;10.48;;;;;;;14.39;100.00;102023.53;5024985;28;20037;-76
2023/10/02 00:35:22;;;;;;;17.77;9.82;;;;;;;14.37;100.00;102012.19;5052388;28;20038;-77
2023/10/02 00:37:47;;;;;;;20.17;10.68;;;;;;;14.34;100.00;102009.63;5023423;28;20525;-77
2023/10/02 00:40:39;;;;;;;18.83;10.25;;;;;;;14.37;100.00;102017.44;5050447;28;20037;-76
2023/10/02 00:43:33;;;;;;;20.88;10.23;;;;;;;14.34;100.00;102009.63;5020428;28;20051;-76
2023/10/02 00:45:50;;;;;;;18.02;9.57;;;;;;;14.34;100.00;102013.09;5026794;28;20109;-76
2023/10/02 00:48:25;;;;;;;16.70;9.95;;;;;;;14.33;100.00;102014.00;5027150;28;20021;-77
2023/10/02 00:50:58;;;;;;;20.05;10.45;;;;;;;14.29;100.00;102009.72;5047731;28;20024;-76
2023/10/02 00:53:39;;;;;;;19.48;9.75;;;;;;;14.27;100.00;102004.50;5029216;28;20025;-77
2023/10/02 00:56:19;;;;;;;16.90;9.93;;;;;;;14.26;100.00;102008.03;5043266;28;20530;-77
2023/10/02 00:58:48;;;;;;;17.77;9.52;;;;;;;14.24;100.00;102011.56;5041097;28;20431;-77
2023/10/02 01:01:14;;;;;;;21.80;10.38;;;;;;;14.24;100.00;102011.56;5020466;28;20025;-77
2023/10/02 01:04:07;;;;;;;19.23;10.50;;;;;;;14.22;100.00;102001.13;5038903;28;20026;-76
2023/10/02 01:06:25;;;;;;;19.60;10.10;;;;;;;14.20;100.00;102002.91;5026036;28;20048;-76
2023/10/02 01:08:51;;;;;;;20.73;10.02;;;;;;;14.17;100.00;102002.97;5041290;28;20018;-77
2023/10/02 01:11:16;;;;;;;17.85;9.93;;;;;;;14.17;100.00;102000.34;5027492;28;20481;-77
2023/10/02 01:13:45;;;;;;;18.73;10.23;;;;;;;14.17;100.00;102002.97;5041017;28;20026;-76
2023/10/02 01:16:13;;;;;;;17.85;10.07;;;;;;;14.16;100.00;101996.00;5027936;28;20430;-76
2023/10/02 01:18:39;;;;;;;19.90;10.15;;;;;;;14.15;100.00;101999.47;5042212;28;20472;-76
2023/10/02 01:21:11;;;;;;;18.80;10.77;;;;;;;14.14;100.00;101999.53;5028384;28;20029;-77
2023/10/02 01:24:08;;;;;;;22.27;11.00;;;;;;;14.09;100.00;101994.34;5045089;28;20024;-77
2023/10/02 01:26:37;;;;;;;22.10;10.70;;;;;;;14.10;100.00;101995.25;5008538;28;20045;-77
2023/10/02 01:29:05;;;;;;;17.92;10.43;;;;;;;14.11;100.00;101995.19;5046814;28;20029;-77
2023/10/02 01:31:32;;;;;;;18.75;10.43;;;;;;;14.09;100.00;101994.34;5033586;28;20061;-76
2023/10/02 01:33:59;;;;;;;21.27;11.13;;;;;;;14.08;100.00;101991.78;5047214;28;20456;-76
2023/10/02 01:36:28;;;;;;;19.88;10.32;;;;;;;14.07;100.00;101990.91;5033987;28;20461;-76
2023/10/02 01:38:59;;;;;;;19.60;10.52;;;;;;;14.09;100.00;101999.59;5048462;28;20031;-77
2023/10/02 01:41:26;;;;;;;19.15;10.52;;;;;;;14.05;100.00;101988.31;5033101;28;20377;-76
2023/10/02 01:43:55;;;;;;;20.10;10.45;;;;;;;14.06;100.00;101983.97;5051114;28;20076;-77
2023/10/02 01:46:22;;;;;;;20.33;10.88;;;;;;;14.09;100.00;101989.13;5032527;28;20042;-77
2023/10/02 01:48:48;;;;;;;18.17;10.05;;;;;;;14.09;100.00;101989.13;5050625;28;20020;-77
2023/10/02 01:51:27;;;;;;;22.15;10.27;;;;;;;14.10;100.00;101987.38;5033989;28;20038;-77
2023/10/02 01:53:54;;;;;;;20.95;10.88;;;;;;;14.09;100.00;101989.13;5036101;28;20031;-77
2023/10/02 01:56:20;;;;;;;19.60;10.48;;;;;;;14.07;100.00;101980.44;5035668;27;20461;-76
2023/10/02 01:58:48;;;;;;;21.20;11.13;;;;;;;14.08;100.00;101982.16;5043225;28;20035;-77
2023/10/02 02:01:14;;;;;;;19.65;10.60;;;;;;;14.03;100.00;101979.63;5021727;28;20439;-77
2023/10/02 02:03:42;;;;;;;21.13;10.82;;;;;;;14.05;100.00;101983.06;5039954;28;20029;-77
2023/10/02 02:06:08;;;;;;;18.27;10.30;;;;;;;14.01;100.00;101985.78;5028277;28;20026;-77
2023/10/02 02:08:43;;;;;;;19.27;10.65;;;;;;;14.01;100.00;101975.31;5042563;28;20037;-77
2023/10/02 02:11:16;;;;;;;22.13;11.43;;;;;;;14.02;100.00;101984.88;5010616;28;20056;-77
2023/10/02 02:13:47;;;;;;;19.77;10.45;;;;;;;13.98;100.00;101981.47;5043060;28;20030;-77
2023/10/02 02:16:31;;;;;;;19.30;10.52;;;;;;;13.97;100.00;101986.75;5030233;28;20104;-77
2023/10/02 02:18:56;;;;;;;;;;;;;;;13.95;100.00;101986.78;5044238;28;20109;-76
2023/10/02 02:21:26;;;;;;;20.67;10.40;;;;;;;13.96;100.00;101987.63;5031161;28;20003;-77
2023/10/02 02:24:03;;;;;;;19.25;10.93;;;;;;;13.90;100.00;101977.28;5044351;28;20541;-76
2023/10/02 02:26:31;;;;;;;19.23;10.68;;;;;;;13.90;100.00;101982.53;5026666;28;20060;-77
2023/10/02 02:28:56;;;;;;;20.67;11.00;;;;;;;13.88;100.00;101981.69;5044981;28;20100;-77
2023/10/02 02:31:31;;;;;;;22.95;11.10;;;;;;;13.85;100.00;101981.75;5032800;28;20421;-77
2023/10/02 02:34:08;;;;;;;19.20;9.73;;;;;;;13.80;100.00;101977.47;5047007;28;20022;-77
2023/10/02 02:36:35;;;;;;;21.30;10.40;;;;;;;13.80;100.00;101977.47;5010927;28;20030;-77
2023/10/02 02:39:37;;;;;;;20.02;10.85;;;;;;;13.82;100.00;101978.28;5047675;28;20416;-76
2023/10/02 02:44:45;;;;;;;17.08;10.45;;;;;;;13.83;100.00;101973.88;5001327;28;20384;-76
2023/10/02 02:47:12;;;;;;;21.98;10.88;;;;;;;13.79;100.00;101962.59;5009294;28;20040;-76
2023/10/02 02:49:51;;;;;;;18.65;10.10;;;;;;;13.80;100.00;101968.75;5018367;28;20029;-77
2023/10/02 02:52:24;;;;;;;20.15;10.02;;;;;;;13.75;100.00;101960.94;5011641;28;20019;-77
2023/10/02 02:54:58;;;;;;;18.50;10.40;;;;;;;13.76;100.00;101965.28;5007496;28;20041;-77
2023/10/02 02:57:27;;;;;;;20.38;10.07;;;;;;;13.74;100.00;101956.59;5040037;28;20504;-76
2023/10/02 03:02:46;;;;;;;20.30;10.27;;;;;;;13.75;100.00;101973.19;5040569;28;20175;-76
2023/10/02 03:05:14;;;;;;;18.60;11.00;;;;;;;13.72;100.00;101960.13;5028988;28;20045;-76
2023/10/02 03:07:41;;;;;;;21.50;11.32;;;;;;;13.74;100.00;101967.09;5044829;28;20106;-76
2023/10/02 03:10:13;;;;;;;24.45;11.50;;;;;;;13.73;100.00;101964.47;5031538;28;20078;-77
2023/10/02 03:12:45;;;;;;;19.63;10.77;;;;;;;13.71;100.00;101961.03;5046586;28;20041;-77
2023/10/02 03:15:14;;;;;;;21.83;10.95;;;;;;;13.67;100.00;101946.25;5009533;28;20240;-76
2023/10/02 03:17:41;;;;;;;20.17;11.13;;;;;;;13.68;100.00;101956.72;5044906;28;20065;-77
2023/10/02 03:20:22;;;;;;;20.23;11.65;;;;;;;13.67;100.00;101948.88;5034933;28;20037;-77
2023/10/02 03:22:57;;;;;;;19.88;11.27;;;;;;;13.67;100.00;101943.63;5050208;28;20475;-77
2023/10/02 03:25:40;;;;;;;23.25;11.85;;;;;;;13.67;100.00;101943.63;5004382;28;20482;-77
2023/10/02 03:28:16;;;;;;;21.65;11.90;;;;;;;13.66;100.00;101939.28;5016565;28;20119;-77
2023/10/02 03:30:43;;;;;;;24.25;11.77;;;;;;;13.65;100.00;101941.03;5037533;28;20055;-77
2023/10/02 03:33:18;;;;;;;22.83;11.85;;;;;;;13.63;100.00;101937.56;5020262;28;20033;-77
2023/10/02 03:35:56;;;;;;;23.98;11.35;;;;;;;13.65;100.00;101942.81;5038801;28;20026;-77
2023/10/02 03:38:23;;;;;;;22.60;12.20;;;;;;;13.65;100.00;101945.44;5021388;28;20030;-76
2023/10/02 03:40:53;;;;;;;24.85;12.13;;;;;;;13.62;100.00;101942.88;5039225;28;20118;-77
2023/10/02 03:43:19;;;;;;;23.95;11.68;;;;;;;13.65;100.00;101945.44;5022857;28;20025;-76
2023/10/02 03:45:46;;;;;;;23.50;11.48;;;;;;;13.59;100.00;101942.00;5038896;28;20033;-76
2023/10/02 03:48:15;;;;;;;20.77;11.60;;;;;;;13.63;100.00;101942.81;5022864;28;20151;-77
2023/10/02 03:50:41;;;;;;;18.23;11.07;;;;;;;13.62;100.00;101935.84;5038944;28;20032;-77
2023/10/02 03:53:12;;;;;;;20.83;10.68;;;;;;;13.61;100.00;101939.38;5017945;28;20144;-77
2023/10/02 03:55:39;;;;;;;21.63;11.38;;;;;;;13.62;100.00;101948.97;5044052;28;20036;-77
2023/10/02 03:58:06;;;;;;;22.95;11.68;;;;;;;13.62;100.00;101942.88;5031160;28;20526;-77
2023/10/02 04:00:43;;;;;;;22.13;11.95;;;;;;;13.62;100.00;101948.97;5044729;28;20037;-77
2023/10/02 04:03:08;;;;;;;22.08;11.35;;;;;;;13.63;100.00;101945.44;5031751;28;20028;-76
2023/10/02 04:05:42;;;;;;;19.70;10.88;;;;;;;13.62;100.00;101938.47;5046054;28;20030;-77
2023/10/02 04:08:36;;;;;;;21.20;11.27;;;;;;;13.64;100.00;101946.31;5033015;28;20030;-77
2023/10/02 04:11:04;;;;;;;21.95;11.45;;;;;;;13.58;100.00;101942.06;5047652;28;20075;-77
2023/10/02 04:13:38;;;;;;;21.88;11.02;;;;;;;13.62;100.00;101946.34;5032975;28;20047;-77
2023/10/02 04:19:06;;;;;;;22.90;10.68;;;;;;;13.58;100.00;101949.91;5033904;28;20121;-77
2023/10/02 04:21:33;;;;;;;19.92;10.90;;;;;;;13.57;100.00;101954.31;5048829;28;20392;-77
2023/10/02 04:23:58;;;;;;;22.27;11.68;;;;;;;13.56;100.00;101949.06;5034486;28;20770;-77
2023/10/02 04:26:28;;;;;;;20.23;10.05;;;;;;;13.55;100.00;101947.34;5029964;28;20060;-77
2023/10/02 04:28:56;;;;;;;22.45;10.57;;;;;;;13.47;100.00;101929.16;5035057;28;20518;-77
2023/10/02 04:31:27;;;;;;;20.45;10.40;;;;;;;13.50;100.00;101944.78;5011212;28;20112;-77
2023/10/02 04:34:15;;;;;;;19.35;9.93;;;;;;;13.50;100.00;101943.94;5035833;28;20116;-77
2023/10/02 04:36:41;;;;;;;22.05;11.20;;;;;;;13.45;100.00;101940.56;5014272;28;20026;-77
2023/10/02 04:39:36;;;;;;;22.33;11.13;;;;;;;13.44;100.00;101941.41;5037482;28;20057;-77
2023/10/02 04:42:11;;;;;;;21.02;11.02;;;;;;;13.42;100.00;101938.84;5016188;28;20090;-77
2023/10/02 04:44:44;;;;;;;19.45;10.30;;;;;;;13.44;100.00;101938.81;5017983;28;20026;-77
2023/10/02 04:47:17;;;;;;;21.60;11.33;;;;;;;13.41;100.00;101944.13;5023530;28;20512;-77
2023/10/02 04:55:23;;;;;;;22.35;10.98;;;;;;;13.40;100.00;101942.38;5044898;28;20045;-77
2023/10/02 04:57:50;;;;;;;23.00;10.50;;;;;;;13.38;100.00;101937.19;5007149;28;20025;-77
2023/10/02 05:00:34;;;;;;;22.20;11.32;;;;;;;13.36;100.00;101938.94;5046408;28;20112;-77
2023/10/02 05:03:17;;;;;;;21.08;10.07;;;;;;;13.36;100.00;101938.94;5008569;28;20134;-77
2023/10/02 05:05:49;;;;;;;22.00;11.00;;;;;;;13.33;100.00;101934.63;5046348;28;20083;-77
2023/10/02 05:08:19;;;;;;;24.63;11.02;;;;;;;13.33;100.00;101932.00;5032826;28;20108;-77
2023/10/02 05:10:47;;;;;;;22.23;11.50;;;;;;;13.32;100.00;101930.28;5046260;28;20030;-77
2023/10/02 05:13:13;;;;;;;22.85;11.70;;;;;;;13.32;100.00;101938.13;5033672;28;20033;-77
2023/10/02 05:16:06;;;;;;;23.20;11.82;;;;;;;13.33;100.00;101936.38;5048895;28;20048;-77
2023/10/02 05:18:24;;;;;;;20.50;11.27;;;;;;;13.31;100.00;101935.56;5011736;28;20038;-76
2023/10/02 05:20:49;;;;;;;19.55;10.93;;;;;;;13.32;100.00;101947.75;5048620;28;20037;-76
2023/10/02 05:23:15;;;;;;;24.65;11.30;;;;;;;13.25;100.00;101933.91;5057882;28;20019;-77
2023/10/02 05:25:41;;;;;;;21.92;10.77;;;;;;;13.32;100.00;101946.00;5053492;28;20042;-77
2023/10/02 05:28:07;;;;;;;19.92;10.88;;;;;;;13.31;100.00;101941.66;5059537;28;20030;-77
2023/10/02 05:30:42;;;;;;;18.42;10.50;;;;;;;13.29;100.00;101942.56;5058486;28;20018;-77
2023/10/02 05:33:07;;;;;;;23.70;10.95;;;;;;;13.24;100.00;101937.44;5053673;28;20789;-77
2023/10/02 05:35:33;;;;;;;20.48;11.25;;;;;;;13.27;100.00;101950.44;5065342;28;20029;-76
2023/10/02 05:37:58;;;;;;;25.20;12.00;;;;;;;13.24;100.00;101940.03;5053223;28;20456;-76
2023/10/02 05:43:09;;;;;;;21.40;12.07;;;;;;;13.26;100.00;101942.63;5049325;28;20036;-77
2023/10/02 05:45:39;;;;;;;25.00;12.43;;;;;;;13.25;100.00;101940.91;5010668;28;20026;-77
2023/10/02 05:48:12;;;;;;;22.48;12.27;;;;;;;13.26;100.00;101948.72;5017281;28;20036;-77
2023/10/02 05:50:40;;;;;;;23.95;11.40;;;;;;;13.26;100.00;101945.25;5035267;28;20026;-76
2023/10/02 05:53:06;;;;;;;23.77;11.85;;;;;;;13.26;100.00;101948.72;5018039;28;20123;-77
2023/10/02 05:55:56;;;;;;;24.50;11.68;;;;;;;13.28;100.00;101957.44;5023625;28;20033;-77
2023/10/02 05:58:31;;;;;;;23.67;11.30;;;;;;;13.30;100.00;101962.63;5047433;28;20098;-77
2023/10/02 06:01:06;;;;;;;21.95;12.10;;;;;;;13.30;100.00;101963.47;5021797;28;20025;-77
2023/10/02 06:03:36;;;;;;;24.33;11.38;;;;;;;13.32;100.00;101973.94;5047533;28;20500;-77
2023/10/02 06:06:18;;;;;;;22.90;12.90;;;;;;;13.39;100.00;101970.31;5021335;28;20022;-77
2023/10/02 06:09:03;;;;;;;24.40;10.98;;;;;;;13.41;100.00;101959.84;5021655;28;20027;-76
2023/10/02 06:11:33;;;;;;;24.30;12.35;;;;;;;13.43;100.00;101964.13;5029220;28;20426;-77
2023/10/02 06:14:10;;;;;;;22.77;12.25;;;;;;;13.49;100.00;101960.56;5043219;28;20443;-77
2023/10/02 06:16:42;;;;;;;23.05;11.55;;;;;;;13.53;100.00;101962.22;5033423;28;20417;-77
2023/10/02 06:19:15;;;;;;;25.80;12.45;;;;;;;13.57;100.00;101963.91;5042434;28;20120;-77
2023/10/02 06:24:28;;;;;;;25.17;12.10;;;;;;;13.66;100.00;101961.09;5037467;28;20098;-77
2023/10/02 06:29:37;;;;;;;25.20;11.98;;;;;;;13.71;100.00;101958.41;5034084;28;20056;-77
2023/10/02 06:32:11;;;;;;;23.63;12.52;;;;;;;13.75;100.00;101953.06;5042108;28;20172;-77
2023/10/02 06:34:38;;;;;;;23.35;12.55;;;;;;;13.83;100.00;101966.03;5027496;28;20022;-77
2023/10/02 06:37:11;;;;;;;26.90;13.77;;;;;;;13.89;100.00;101965.91;5038759;28;20117;-77
2023/10/02 06:39:42;;;;;;;28.00;12.70;;;;;;;13.92;100.00;101960.59;5023651;28;20041;-77
2023/10/02 06:42:09;;;;;;;26.42;12.43;;;;;;;14.00;100.00;101965.72;5030488;28;20036;-77
2023/10/02 06:44:52;;;;;;;23.50;12.82;;;;;;;14.05;100.00;101966.47;5030450;28;20022;-77
2023/10/02 06:47:22;;;;;;;26.38;12.88;;;;;;;14.15;100.00;101978.50;5042882;28;20028;-77
2023/10/02 06:49:51;;;;;;;24.88;12.32;;;;;;;14.19;100.00;101968.81;5044312;28;20389;-77
2023/10/02 06:52:17;;;;;;;25.80;13.15;;;;;;;14.24;100.00;101973.06;5017170;28;20498;-77
2023/10/02 06:54:44;;;;;;;22.13;12.32;;;;;;;14.29;100.00;101970.38;5029110;28;20049;-77
2023/10/02 06:57:11;;;;;;;24.85;12.95;;;;;;;14.34;100.00;101978.13;5042450;28;20123;-77
2023/10/02 06:59:38;;;;;;;24.08;12.40;;;;;;;14.40;100.00;101976.25;5030475;28;20025;-77
2023/10/02 07:02:06;;;;;;;27.98;12.93;;;;;;;14.47;100.00;101966.47;5043950;28;20068;-77
2023/10/02 07:04:35;;;;;;;25.98;12.82;;;;;;;14.52;100.00;101964.66;5029697;28;20385;-77
2023/10/02 07:07:03;;;;;;;24.70;13.05;;;;;;;14.58;100.00;101956.63;5046696;28;20451;-77
2023/10/02 07:09:35;;;;;;;22.98;12.45;;;;;;;14.69;100.00;101965.16;5028856;28;20477;-77
2023/10/02 07:12:13;;;;;;;24.55;12.32;;;;;;;14.84;100.00;101973.56;5048377;28;20123;-77
2023/10/02 07:14:41;;;;;;;26.02;13.13;;;;;;;14.97;100.00;101960.09;5031283;28;20034;-77
2023/10/02 07:17:16;;;;;;;26.38;12.52;;;;;;;15.17;100.00;101951.75;5048595;28;20094;-77
2023/10/02 07:19:48;;;;;;;24.60;12.50;;;;;;;15.40;100.00;101958.16;5031829;28;20044;-77
2023/10/02 07:22:23;;;;;;;20.95;11.05;;;;;;;15.62;100.00;101959.34;5049161;28;20031;-77
2023/10/02 07:24:54;;;;;;;26.20;12.18;;;;;;;15.84;100.00;101964.91;5031855;28;20488;-77
2023/10/02 07:27:24;;;;;;;20.80;12.30;;;;;;;16.04;100.00;101966.97;5048069;28;20040;-77
2023/10/02 07:29:56;;;;;;;25.08;12.30;;;;;;;16.27;100.00;101963.69;5032152;28;20108;-77
2023/10/02 07:32:24;;;;;;;23.30;11.87;;;;;;;16.43;100.00;101947.44;5051424;28;20478;-77
2023/10/02 07:34:51;;;;;;;23.42;12.27;;;;;;;16.60;100.00;101951.28;5031987;28;20105;-77
2023/10/02 07:37:21;;;;;;;22.42;11.82;;;;;;;16.73;100.00;101961.44;5046536;28;20030;-77
2023/10/02 07:39:48;;;;;;;21.73;11.45;;;;;;;16.84;100.00;101964.63;5034585;28;20030;-77
2023/10/02 07:42:16;;;;;;;24.23;12.93;;;;;;;16.87;100.00;101955.75;5042437;28;20032;-77
2023/10/02 07:44:41;;;;;;;23.45;11.15;;;;;;;16.91;100.00;101960.03;5043050;28;20105;-77
2023/10/02 07:47:19;;;;;;;20.85;11.90;;;;;;;16.93;100.00;101964.31;5033370;28;20163;-77
2023/10/02 07:49:51;;;;;;;20.83;11.13;;;;;;;16.90;100.00;101956.50;5045902;28;20495;-77
2023/10/02 07:52:29;;;;;;;20.30;11.95;;;;;;;16.96;100.00;101968.63;5019584;28;20033;-77
2023/10/02 07:54:59;;;;;;;24.85;11.20;;;;;;;16.94;100.00;101960.78;5028618;28;20033;-77
2023/10/02 07:57:32;;;;;;;24.33;12.05;;;;;;;16.89;100.00;101946.91;5042796;28;20033;-77
2023/10/02 08:00:05;;;;;;;19.95;11.73;;;;;;;16.84;100.00;101956.75;5028000;28;20531;-77
2023/10/02 08:02:33;;;;;;;26.93;11.93;;;;;;;16.73;100.00;101951.75;5042515;28;20477;-77
2023/10/02 08:05:04;;;;;;;24.88;12.27;;;;;;;16.60;100.00;101960.94;5029268;28;20276;-77
2023/10/02 08:07:29;;;;;;;21.23;11.73;;;;;;;16.52;100.00;101962.97;5043372;28;20033;-77
2023/10/02 08:09:58;;;;;;;24.77;11.35;;;;;;;16.43;100.00;101957.97;5030378;28;20026;-77
2023/10/02 08:12:29;;;;;;;21.08;12.25;;;;;;;16.34;100.00;101953.84;5044324;28;20384;-77
2023/10/02 08:15:00;;;;;;;21.63;11.45;;;;;;;16.34;100.00;101967.84;5030997;28;20053;-77
2023/10/02 08:18:03;;;;;;;23.23;11.23;;;;;;;16.35;100.00;101958.22;5045606;28;20045;-77
2023/10/02 08:23:02;;;;;;;24.33;12.43;;;;;;;16.67;100.00;101965.09;5047053;28;20119;-77
2023/10/02 08:25:27;;;;;;;22.67;11.60;;;;;;;16.83;100.00;101968.16;5032489;28;20098;-77
2023/10/02 08:27:55;;;;;;;23.67;12.32;;;;;;;17.03;100.00;101971.00;5045649;28;20034;-77
2023/10/02 08:30:28;;;;;;;24.27;12.05;;;;;;;17.22;100.00;101965.16;5033613;28;20370;-77
2023/10/02 08:33:09;;;;;;;24.75;12.48;;;;;;;17.44;100.00;101967.94;5046955;28;20080;-77
2023/10/02 08:35:41;;;;;;;24.90;12.55;;;;;;;17.65;100.00;101959.25;5033983;28;20429;-77
2023/10/02 08:38:07;;;;;;;25.13;11.90;;;;;;;17.89;100.00;101965.47;5048598;28;20045;-77
2023/10/02 08:40:40;;;;;;;21.90;11.75;;;;;;;18.09;100.00;101958.63;5034470;28;20121;-77
2023/10/02 08:43:05;;;;;;;25.85;12.20;;;;;;;18.34;100.00;101961.16;5049189;28;20384;-77
2023/10/02 08:45:33;;;;;;;22.63;12.00;;;;;;;18.59;100.00;101961.09;5035729;28;20029;-77
2023/10/02 08:48:07;;;;;;;25.95;12.07;;;;;;;18.80;100.00;101968.22;5048855;28;20034;-77
2023/10/02 08:50:33;;;;;;;24.48;12.32;;;;;;;18.91;100.00;101965.97;5010057;28;20389;-77
2023/10/02 08:52:58;;;;;;;22.98;12.02;;;;;;;19.02;100.00;101962.03;5016883;28;20013;-77
2023/10/02 08:55:36;;;;;;;23.27;12.48;;;;;;;19.08;100.00;101961.78;5025388;28;20034;-77
2023/10/02 08:58:15;;;;;;;23.17;11.27;;;;;;;19.15;100.00;101953.53;5042938;28;20021;-77
2023/10/02 09:01:01;;;;;;;23.60;11.95;;;;;;;19.21;100.00;101946.28;5020349;28;20029;-77
2023/10/02 09:03:26;;;;;;;24.88;11.48;;;;;;;19.30;100.00;101936.19;5048589;28;20033;-77
2023/10/02 09:06:22;;;;;;;26.00;12.90;;;;;;;19.46;100.00;101946.97;5021517;28;20025;-77
2023/10/02 09:09:13;;;;;;;20.63;11.23;;;;;;;19.57;100.00;101939.41;5049247;28;20385;-77
2023/10/02 09:11:35;;;;;;;24.38;12.27;;;;;;;19.70;100.00;101949.50;5029741;28;20045;-77
2023/10/02 09:14:23;;;;;;;23.98;11.82;;;;;;;19.62;100.00;101949.81;5041158;28;20033;-77
2023/10/02 09:20:03;;;;;;;21.90;12.23;;;;;;;19.49;100.00;101952.13;5029377;28;20052;-77
2023/10/02 09:22:34;;;;;;;23.88;11.63;;;;;;;19.31;100.00;101948.47;5045504;28;20022;-77
2023/10/02 09:25:09;;;;;;;20.63;11.85;;;;;;;19.14;100.00;101950.97;5006395;28;20495;-77
2023/10/02 09:27:41;;;;;;;25.23;12.00;;;;;;;18.99;100.00;101947.16;5046231;28;20045;-77
2023/10/02 09:30:28;;;;;;;22.58;12.60;;;;;;;18.90;100.00;101935.22;5006684;28;20029;-77
2023/10/02 09:32:54;;;;;;;26.38;12.85;;;;;;;18.85;100.00;101953.03;5047108;28;20036;-77
2023/10/02 09:35:50;;;;;;;22.02;12.23;;;;;;;18.84;100.00;101953.09;5033353;28;20022;-77
2023/10/02 09:38:16;;;;;;;23.15;12.15;;;;;;;18.74;100.00;101952.59;5048069;28;20026;-77
2023/10/02 09:43:31;;;;;;;23.95;12.20;;;;;;;18.42;100.00;101956.47;5048792;28;20064;-77
2023/10/02 09:46:05;;;;;;;23.60;12.40;;;;;;;18.33;100.00;101957.69;5034316;28;20086;-77
2023/10/02 09:48:46;;;;;;;27.30;12.32;;;;;;;18.23;100.00;101951.03;5049569;28;20041;-77
2023/10/02 09:51:20;;;;;;;24.27;11.60;;;;;;;18.30;100.00;101946.38;5037197;28;20025;-77
2023/10/02 09:54:04;;;;;;;24.10;12.48;;;;;;;18.57;100.00;101947.06;5023806;28;20026;-77
2023/10/02 09:57:04;;;;;;;21.70;11.90;;;;;;;18.84;100.00;101935.47;5031771;28;20027;-77
2023/10/02 09:59:42;;;;;;;28.92;12.88;;;;;;;19.08;100.00;101940.66;5035059;28;20122;-77
2023/10/02 10:02:47;;;;;;;23.05;12.15;;;;;;;19.35;100.00;101952.69;5045918;28;20109;-77
2023/10/02 10:07:46;;;;;;;24.48;12.05;;;;;;;20.00;100.00;101942.81;5046734;28;20072;-77
2023/10/02 10:10:27;;;;;;;21.25;11.73;;;;;;;20.37;100.00;101940.25;5032913;28;20026;-77
2023/10/02 10:12:55;;;;;;;26.38;12.77;;;;;;;20.71;100.00;101929.78;5012970;28;20384;-77
2023/10/02 10:15:26;;;;;;;24.27;11.38;;;;;;;20.91;100.00;101928.81;5033699;28;20030;-77
2023/10/02 10:17:51;;;;;;;23.08;12.48;;;;;;;20.97;100.00;101923.19;5012206;28;20489;-77
2023/10/02 10:20:25;;;;;;;22.25;12.45;;;;;;;21.03;100.00;101925.56;5033868;28;20041;-77
2023/10/02 10:22:56;;;;;;;;;;;;;;;21.18;100.00;101915.94;5048748;28;20071;-77
2023/10/02 10:27:54;;;;;;;21.70;11.97;;;;;;;21.24;100.00;101915.63;5012241;28;20038;-77
2023/10/02 10:30:24;;;;;;;27.55;12.93;;;;;;;21.34;100.00;101916.03;5031812;28;20293;-77
2023/10/02 10:36:09;;;;;;;22.52;11.55;;;;;;;21.55;100.00;101915.88;5045867;28;20045;-77
2023/10/02 10:38:36;;;;;;;22.23;10.88;;;;;;;21.69;100.00;101908.06;5014972;28;20434;-77
2023/10/02 10:41:27;;;;;;;20.55;11.68;;;;;;;21.86;100.00;101908.00;5043507;28;20113;-77
2023/10/02 10:43:55;;;;;;;22.23;12.25;;;;;;;21.95;100.00;101898.69;5030667;28;20033;-77
2023/10/02 10:46:27;;;;;;;23.25;12.15;;;;;;;21.93;100.00;101905.88;5046986;28;20426;-77
2023/10/02 10:48:59;;;;;;;24.60;13.07;;;;;;;21.87;100.00;101895.56;5023863;28;20036;-77
2023/10/02 10:51:28;;;;;;;22.73;12.88;;;;;;;21.78;100.00;101904.03;5011637;28;20049;-77
2023/10/02 10:54:12;;;;;;;26.05;12.45;;;;;;;21.65;100.00;101894.09;5022962;28;20090;-77
2023/10/02 10:56:43;;;;;;;22.00;12.18;;;;;;;21.54;100.00;101893.78;5037312;28;20022;-77
2023/10/02 10:59:13;;;;;;;23.25;11.90;;;;;;;21.45;100.00;101888.97;5027878;28;20025;-77
2023/10/02 11:04:34;;;;;;;26.05;13.63;;;;;;;21.37;100.00;101893.81;5031609;28;20044;-77
2023/10/02 11:06:59;;;;;;;22.15;12.60;;;;;;;21.43;100.00;101893.50;5047862;28;20054;-77
2023/10/02 11:09:25;;;;;;;22.50;12.15;;;;;;;21.58;100.00;101879.44;5030244;28;20072;-77
2023/10/02 11:11:50;;;;;;;24.60;12.45;;;;;;;21.66;100.00;101893.16;5047907;28;20077;-77
2023/10/02 11:14:22;;;;;;;22.30;12.27;;;;;;;21.69;100.00;101882.38;5033189;28;20018;-77
2023/10/02 11:16:52;;;;;;;21.17;12.03;;;;;;;21.82;100.00;101876.41;5027751;28;20024;-77
2023/10/02 11:19:21;;;;;;;23.40;11.73;;;;;;;22.18;100.00;101884.16;5036111;28;20277;-77
2023/10/02 11:22:19;;;;;;;23.35;12.60;;;;;;;22.60;100.00;101880.88;5038370;28;20036;-77
2023/10/02 11:24:51;;;;;;;19.30;11.30;;;;;;;23.01;100.00;101874.09;5031384;28;20034;-77
2023/10/02 11:27:17;;;;;;;23.00;11.70;;;;;;;23.34;100.00;101864.09;5016069;28;20050;-77
2023/10/02 11:29:45;;;;;;;22.25;12.18;;;;;;;23.70;100.00;101873.44;5031868;28;20481;-77
2023/10/02 11:32:27;;;;;;;21.92;12.10;;;;;;;24.11;100.00;101864.66;5047478;28;20470;-77
2023/10/02 11:34:59;;;;;;;20.13;11.40;;;;;;;24.40;100.00;101861.91;5031563;28;20054;-77
2023/10/02 11:37:26;;;;;;;17.73;10.77;;;;;;;24.60;100.00;101852.63;5052408;28;20023;-77
2023/10/02 11:39:52;;;;;;;24.10;11.35;;;;;;;24.76;100.00;101853.31;5030996;28;20105;-77
2023/10/02 11:42:18;;;;;;;19.00;11.60;;;;;;;25.08;100.00;101851.13;5046207;28;20466;-77
2023/10/02 11:44:44;;;;;;;19.05;11.00;;;;;;;25.63;100.00;101859.75;5042639;28;20036;-77
2023/10/02 11:47:12;;;;;;;21.25;11.20;;;;;;;25.91;100.00;101842.66;5021688;28;20104;-77
2023/10/02 11:49:39;;;;;;;21.40;11.10;;;;;;;25.88;100.00;101849.06;5038226;28;20031;-77
2023/10/02 11:52:05;;;;;;;20.08;11.43;;;;;;;25.87;100.00;101847.34;5016264;28;20083;-77
2023/10/02 11:54:36;;;;;;;18.83;10.55;;;;;;;25.62;100.00;101848.22;5030205;28;20025;-77
2023/10/02 11:57:08;;;;;;;20.08;10.82;;;;;;;25.33;100.00;101841.41;5043159;28;20026;-77
2023/10/02 11:59:34;;;;;;;19.08;10.70;;;;;;;25.19;100.00;101840.56;5007966;28;20112;-77
2023/10/02 12:02:00;;;;;;;21.42;11.25;;;;;;;25.19;100.00;101839.72;5045466;28;20023;-77
2023/10/02 12:04:26;;;;;;;20.02;12.07;;;;;;;25.04;100.00;101822.06;5029358;28;20034;-77